Tampa, Florida
Current Conditions -  °F | °C
As of 11:53 AM on Friday 19 Dec 2014 (Local Time) from KTPA Reporting Station
Broken Clouds Broken Clouds  
Wind Chill: 20°   Ceiling: 22000
Heat Index: 20°   Visibility: 10mi
Dew Point:   Wind: 5mph
Humidity: 50%   Direction: 90°E
Pressure: 30.12"   Gusts: NA
Location:  27.95°N, 82.46°W
Report Text: KTPA 191653Z 09004KT 10SM BKN220 20/09 A3012 RMK AO2 SLP200 T02000094
Loading
Personal Weather Stations






























Interactive Weather Map New forecast layout! Learn more

10-Day Weather Forecast

Advertisements
Track Severe Weather on mobile